sensor_id;sensor_type;location;lat;lon;timestamp;temperature;humidity
7894;DHT22;51343;51.396;6.656;2023-07-29T00:00:11;18.60;99.90
7894;DHT22;51343;51.396;6.656;2023-07-29T00:02:39;18.60;99.90
7894;DHT22;51343;51.396;6.656;2023-07-29T00:05:05;18.70;99.90
7894;DHT22;51343;51.396;6.656;2023-07-29T00:07:32;18.80;99.90
7894;DHT22;51343;51.396;6.656;2023-07-29T00:09:59;18.70;99.90
7894;DHT22;51343;51.396;6.656;2023-07-29T00:12:25;18.80;99.90
7894;DHT22;51343;51.396;6.656;2023-07-29T00:14:52;18.80;99.90
7894;DHT22;51343;51.396;6.656;2023-07-29T00:17:18;18.80;99.90
7894;DHT22;51343;51.396;6.656;2023-07-29T00:19:47;18.80;99.90
7894;DHT22;51343;51.396;6.656;2023-07-29T00:22:14;18.80;99.90
7894;DHT22;51343;51.396;6.656;2023-07-29T00:24:40;18.90;99.90
7894;DHT22;51343;51.396;6.656;2023-07-29T00:27:07;18.90;99.90
7894;DHT22;51343;51.396;6.656;2023-07-29T00:29:34;18.90;99.90
7894;DHT22;51343;51.396;6.656;2023-07-29T00:32:00;18.90;99.90
7894;DHT22;51343;51.396;6.656;2023-07-29T00:34:27;18.90;99.90
7894;DHT22;51343;51.396;6.656;2023-07-29T00:36:55;18.90;99.90
7894;DHT22;51343;51.396;6.656;2023-07-29T00:39:22;18.90;99.90
7894;DHT22;51343;51.396;6.656;2023-07-29T00:41:49;18.90;99.90
7894;DHT22;51343;51.396;6.656;2023-07-29T00:44:16;18.80;99.90
7894;DHT22;51343;51.396;6.656;2023-07-29T00:46:43;18.90;99.90
7894;DHT22;51343;51.396;6.656;2023-07-29T00:49:11;18.90;99.90
7894;DHT22;51343;51.396;6.656;2023-07-29T00:51:38;18.90;99.90
7894;DHT22;51343;51.396;6.656;2023-07-29T00:54:06;18.90;99.90
7894;DHT22;51343;51.396;6.656;2023-07-29T00:56:33;18.80;99.90
7894;DHT22;51343;51.396;6.656;2023-07-29T00:58:59;18.80;99.90
7894;DHT22;51343;51.396;6.656;2023-07-29T01:01:27;18.80;99.90
7894;DHT22;51343;51.396;6.656;2023-07-29T01:03:54;18.80;99.90
7894;DHT22;51343;51.396;6.656;2023-07-29T01:06:22;18.90;99.90
7894;DHT22;51343;51.396;6.656;2023-07-29T01:08:51;18.90;99.90
7894;DHT22;51343;51.396;6.656;2023-07-29T01:11:25;18.90;99.90
7894;DHT22;51343;51.396;6.656;2023-07-29T01:13:57;18.90;99.90
7894;DHT22;51343;51.396;6.656;2023-07-29T01:16:25;18.90;99.90
7894;DHT22;51343;51.396;6.656;2023-07-29T01:18:56;19.00;99.90
7894;DHT22;51343;51.396;6.656;2023-07-29T01:21:24;18.90;99.90
7894;DHT22;51343;51.396;6.656;2023-07-29T01:23:56;18.90;99.90
7894;DHT22;51343;51.396;6.656;2023-07-29T01:26:24;18.90;99.90
7894;DHT22;51343;51.396;6.656;2023-07-29T01:28:50;18.90;99.90
7894;DHT22;51343;51.396;6.656;2023-07-29T01:31:19;18.90;99.90
7894;DHT22;51343;51.396;6.656;2023-07-29T01:33:52;18.90;99.90
7894;DHT22;51343;51.396;6.656;2023-07-29T01:36:21;18.90;99.90
7894;DHT22;51343;51.396;6.656;2023-07-29T01:38:48;18.90;99.90
7894;DHT22;51343;51.396;6.656;2023-07-29T01:41:17;18.90;99.90
7894;DHT22;51343;51.396;6.656;2023-07-29T01:43:44;18.90;99.90
7894;DHT22;51343;51.396;6.656;2023-07-29T01:46:11;18.90;99.90
7894;DHT22;51343;51.396;6.656;2023-07-29T01:48:38;18.90;99.90
7894;DHT22;51343;51.396;6.656;2023-07-29T01:51:05;18.90;99.90
7894;DHT22;51343;51.396;6.656;2023-07-29T01:53:31;18.90;99.90
7894;DHT22;51343;51.396;6.656;2023-07-29T01:55:58;18.90;99.90
7894;DHT22;51343;51.396;6.656;2023-07-29T01:58:26;18.90;99.90
7894;DHT22;51343;51.396;6.656;2023-07-29T02:00:53;18.90;99.90
7894;DHT22;51343;51.396;6.656;2023-07-29T02:03:19;18.90;99.90
7894;DHT22;51343;51.396;6.656;2023-07-29T02:05:46;18.90;99.90
7894;DHT22;51343;51.396;6.656;2023-07-29T02:08:13;18.90;99.90
7894;DHT22;51343;51.396;6.656;2023-07-29T02:10:39;18.90;99.90
7894;DHT22;51343;51.396;6.656;2023-07-29T02:13:06;18.90;99.90
7894;DHT22;51343;51.396;6.656;2023-07-29T02:15:34;18.90;99.90
7894;DHT22;51343;51.396;6.656;2023-07-29T02:18:00;18.90;99.90
7894;DHT22;51343;51.396;6.656;2023-07-29T02:20:28;18.80;99.90
7894;DHT22;51343;51.396;6.656;2023-07-29T02:22:55;18.80;99.90
7894;DHT22;51343;51.396;6.656;2023-07-29T02:25:21;18.80;99.90
7894;DHT22;51343;51.396;6.656;2023-07-29T02:27:48;18.80;99.90
7894;DHT22;51343;51.396;6.656;2023-07-29T02:30:15;18.80;99.90
7894;DHT22;51343;51.396;6.656;2023-07-29T02:32:43;18.80;99.90
7894;DHT22;51343;51.396;6.656;2023-07-29T02:35:09;18.70;99.90
7894;DHT22;51343;51.396;6.656;2023-07-29T02:37:36;18.70;99.90
7894;DHT22;51343;51.396;6.656;2023-07-29T02:40:03;18.70;99.90
7894;DHT22;51343;51.396;6.656;2023-07-29T02:42:30;18.70;99.90
7894;DHT22;51343;51.396;6.656;2023-07-29T02:44:57;18.60;99.90
7894;DHT22;51343;51.396;6.656;2023-07-29T02:47:24;18.60;99.90
7894;DHT22;51343;51.396;6.656;2023-07-29T02:49:52;18.60;99.90
7894;DHT22;51343;51.396;6.656;2023-07-29T02:52:18;18.60;99.90
7894;DHT22;51343;51.396;6.656;2023-07-29T02:54:45;18.60;99.90
7894;DHT22;51343;51.396;6.656;2023-07-29T02:57:12;18.60;99.90
7894;DHT22;51343;51.396;6.656;2023-07-29T02:59:39;18.60;99.90
7894;DHT22;51343;51.396;6.656;2023-07-29T03:02:06;18.70;99.90
7894;DHT22;51343;51.396;6.656;2023-07-29T03:04:32;18.70;99.90
7894;DHT22;51343;51.396;6.656;2023-07-29T03:07:00;18.60;99.90
7894;DHT22;51343;51.396;6.656;2023-07-29T03:09:27;18.60;99.90
7894;DHT22;51343;51.396;6.656;2023-07-29T03:11:54;18.60;99.90
7894;DHT22;51343;51.396;6.656;2023-07-29T03:14:22;18.60;99.90
7894;DHT22;51343;51.396;6.656;2023-07-29T03:16:48;18.60;99.90
7894;DHT22;51343;51.396;6.656;2023-07-29T03:19:15;18.60;99.90
7894;DHT22;51343;51.396;6.656;2023-07-29T03:21:42;18.60;99.90
7894;DHT22;51343;51.396;6.656;2023-07-29T03:24:10;18.60;99.90
7894;DHT22;51343;51.396;6.656;2023-07-29T03:26:36;18.60;99.90
7894;DHT22;51343;51.396;6.656;2023-07-29T03:29:03;18.50;99.90
7894;DHT22;51343;51.396;6.656;2023-07-29T03:31:29;18.60;99.90
7894;DHT22;51343;51.396;6.656;2023-07-29T03:33:56;18.60;99.90
7894;DHT22;51343;51.396;6.656;2023-07-29T03:36:23;18.60;99.90
7894;DHT22;51343;51.396;6.656;2023-07-29T03:38:50;18.60;99.90
7894;DHT22;51343;51.396;6.656;2023-07-29T03:41:18;18.60;99.90
7894;DHT22;51343;51.396;6.656;2023-07-29T03:43:45;18.60;99.90
7894;DHT22;51343;51.396;6.656;2023-07-29T03:46:11;18.60;99.90
7894;DHT22;51343;51.396;6.656;2023-07-29T03:48:38;18.50;99.90
7894;DHT22;51343;51.396;6.656;2023-07-29T03:51:05;18.60;99.90
7894;DHT22;51343;51.396;6.656;2023-07-29T03:53:32;18.50;99.90
7894;DHT22;51343;51.396;6.656;2023-07-29T03:55:58;18.50;99.90
7894;DHT22;51343;51.396;6.656;2023-07-29T03:58:26;18.50;99.90
7894;DHT22;51343;51.396;6.656;2023-07-29T04:00:53;18.50;99.90
7894;DHT22;51343;51.396;6.656;2023-07-29T04:03:19;18.50;99.90
7894;DHT22;51343;51.396;6.656;2023-07-29T04:05:46;18.40;99.90
7894;DHT22;51343;51.396;6.656;2023-07-29T04:08:12;18.40;99.90
7894;DHT22;51343;51.396;6.656;2023-07-29T04:10:39;18.40;99.90
7894;DHT22;51343;51.396;6.656;2023-07-29T04:13:06;18.40;99.90
7894;DHT22;51343;51.396;6.656;2023-07-29T04:15:34;18.30;99.90
7894;DHT22;51343;51.396;6.656;2023-07-29T04:18:00;18.30;99.90
7894;DHT22;51343;51.396;6.656;2023-07-29T04:20:27;18.30;99.90
7894;DHT22;51343;51.396;6.656;2023-07-29T04:22:53;18.30;99.90
7894;DHT22;51343;51.396;6.656;2023-07-29T04:25:20;18.30;99.90
7894;DHT22;51343;51.396;6.656;2023-07-29T04:27:47;18.20;99.90
7894;DHT22;51343;51.396;6.656;2023-07-29T04:30:13;18.20;99.90
7894;DHT22;51343;51.396;6.656;2023-07-29T04:32:41;18.20;99.90
7894;DHT22;51343;51.396;6.656;2023-07-29T04:35:10;18.20;99.90
7894;DHT22;51343;51.396;6.656;2023-07-29T04:37:36;18.20;99.90
7894;DHT22;51343;51.396;6.656;2023-07-29T04:40:03;18.20;99.90
7894;DHT22;51343;51.396;6.656;2023-07-29T04:42:30;18.10;99.90
7894;DHT22;51343;51.396;6.656;2023-07-29T04:44:57;18.10;99.90
7894;DHT22;51343;51.396;6.656;2023-07-29T04:47:23;18.10;99.90
7894;DHT22;51343;51.396;6.656;2023-07-29T04:49:50;18.10;99.90
7894;DHT22;51343;51.396;6.656;2023-07-29T04:52:17;18.10;99.90
7894;DHT22;51343;51.396;6.656;2023-07-29T04:54:45;18.10;99.90
7894;DHT22;51343;51.396;6.656;2023-07-29T04:57:11;18.10;99.90
7894;DHT22;51343;51.396;6.656;2023-07-29T04:59:38;18.10;99.90
7894;DHT22;51343;51.396;6.656;2023-07-29T05:02:04;18.10;99.90
7894;DHT22;51343;51.396;6.656;2023-07-29T05:04:31;18.10;99.90
7894;DHT22;51343;51.396;6.656;2023-07-29T05:06:59;18.10;99.90
7894;DHT22;51343;51.396;6.656;2023-07-29T05:09:26;18.10;99.90
7894;DHT22;51343;51.396;6.656;2023-07-29T05:11:52;18.10;99.90
7894;DHT22;51343;51.396;6.656;2023-07-29T05:14:19;18.10;99.90
7894;DHT22;51343;51.396;6.656;2023-07-29T05:16:45;18.10;99.90
7894;DHT22;51343;51.396;6.656;2023-07-29T05:19:13;18.00;99.90
7894;DHT22;51343;51.396;6.656;2023-07-29T05:21:39;18.10;99.90
7894;DHT22;51343;51.396;6.656;2023-07-29T05:24:07;18.10;99.90
7894;DHT22;51343;51.396;6.656;2023-07-29T05:26:34;18.10;99.90
7894;DHT22;51343;51.396;6.656;2023-07-29T05:29:00;18.10;99.90
7894;DHT22;51343;51.396;6.656;2023-07-29T05:31:27;18.00;99.90
7894;DHT22;51343;51.396;6.656;2023-07-29T05:33:54;18.00;99.90
7894;DHT22;51343;51.396;6.656;2023-07-29T05:36:20;18.00;99.90
7894;DHT22;51343;51.396;6.656;2023-07-29T05:38:47;18.00;99.90
7894;DHT22;51343;51.396;6.656;2023-07-29T05:41:15;18.00;99.90
7894;DHT22;51343;51.396;6.656;2023-07-29T05:43:42;18.00;99.90
7894;DHT22;51343;51.396;6.656;2023-07-29T05:46:08;18.00;99.90
7894;DHT22;51343;51.396;6.656;2023-07-29T05:48:35;18.00;99.90
7894;DHT22;51343;51.396;6.656;2023-07-29T05:51:02;18.00;99.90
7894;DHT22;51343;51.396;6.656;2023-07-29T05:53:30;18.00;99.90
7894;DHT22;51343;51.396;6.656;2023-07-29T05:55:57;18.00;99.90
7894;DHT22;51343;51.396;6.656;2023-07-29T05:58:25;18.00;99.90
7894;DHT22;51343;51.396;6.656;2023-07-29T06:00:51;18.00;99.90
7894;DHT22;51343;51.396;6.656;2023-07-29T06:03:18;18.00;99.90
7894;DHT22;51343;51.396;6.656;2023-07-29T06:05:44;18.00;99.90
7894;DHT22;51343;51.396;6.656;2023-07-29T06:08:11;18.10;99.90
7894;DHT22;51343;51.396;6.656;2023-07-29T06:10:37;18.10;99.90
7894;DHT22;51343;51.396;6.656;2023-07-29T06:13:04;18.10;99.90
7894;DHT22;51343;51.396;6.656;2023-07-29T06:15:32;18.20;99.90
7894;DHT22;51343;51.396;6.656;2023-07-29T06:17:59;18.20;99.90
7894;DHT22;51343;51.396;6.656;2023-07-29T06:20:26;18.20;99.90
7894;DHT22;51343;51.396;6.656;2023-07-29T06:22:52;18.20;99.90
7894;DHT22;51343;51.396;6.656;2023-07-29T06:25:19;18.20;99.90
7894;DHT22;51343;51.396;6.656;2023-07-29T06:27:45;18.20;5.70
7894;DHT22;51343;51.396;6.656;2023-07-29T06:30:12;18.10;1.00
7894;DHT22;51343;51.396;6.656;2023-07-29T06:32:40;18.10;1.00
7894;DHT22;51343;51.396;6.656;2023-07-29T06:35:07;18.10;1.00
7894;DHT22;51343;51.396;6.656;2023-07-29T06:37:34;18.20;99.90
7894;DHT22;51343;51.396;6.656;2023-07-29T06:40:00;18.30;1.00
7894;DHT22;51343;51.396;6.656;2023-07-29T06:42:27;18.30;1.00
7894;DHT22;51343;51.396;6.656;2023-07-29T06:44:53;18.40;1.00
7894;DHT22;51343;51.396;6.656;2023-07-29T06:47:20;18.50;1.00
7894;DHT22;51343;51.396;6.656;2023-07-29T06:49:48;18.50;1.00
7894;DHT22;51343;51.396;6.656;2023-07-29T06:52:15;18.50;1.00
7894;DHT22;51343;51.396;6.656;2023-07-29T06:54:41;18.60;1.00
7894;DHT22;51343;51.396;6.656;2023-07-29T06:57:08;18.70;99.90
7894;DHT22;51343;51.396;6.656;2023-07-29T06:59:35;18.70;1.00
7894;DHT22;51343;51.396;6.656;2023-07-29T07:02:06;18.70;1.00
7894;DHT22;51343;51.396;6.656;2023-07-29T07:04:33;18.70;1.00
7894;DHT22;51343;51.396;6.656;2023-07-29T07:07:02;18.70;1.00
7894;DHT22;51343;51.396;6.656;2023-07-29T07:09:29;18.80;95.90
7894;DHT22;51343;51.396;6.656;2023-07-29T07:11:55;18.80;1.00
7894;DHT22;51343;51.396;6.656;2023-07-29T07:14:22;18.80;99.90
7894;DHT22;51343;51.396;6.656;2023-07-29T07:16:52;18.80;99.90
7894;DHT22;51343;51.396;6.656;2023-07-29T07:19:20;18.90;99.90
7894;DHT22;51343;51.396;6.656;2023-07-29T07:21:46;18.90;99.90
7894;DHT22;51343;51.396;6.656;2023-07-29T07:24:15;19.00;1.00
7894;DHT22;51343;51.396;6.656;2023-07-29T07:26:43;19.10;1.00
7894;DHT22;51343;51.396;6.656;2023-07-29T07:29:10;19.20;99.90
7894;DHT22;51343;51.396;6.656;2023-07-29T07:31:37;19.30;1.00
7894;DHT22;51343;51.396;6.656;2023-07-29T07:34:04;19.30;1.00
7894;DHT22;51343;51.396;6.656;2023-07-29T07:36:30;19.30;99.90
7894;DHT22;51343;51.396;6.656;2023-07-29T07:38:57;19.30;99.90
7894;DHT22;51343;51.396;6.656;2023-07-29T07:41:26;19.40;99.90
7894;DHT22;51343;51.396;6.656;2023-07-29T07:43:53;19.50;1.00
7894;DHT22;51343;51.396;6.656;2023-07-29T07:46:20;19.50;1.00
7894;DHT22;51343;51.396;6.656;2023-07-29T07:48:49;19.60;1.00
7894;DHT22;51343;51.396;6.656;2023-07-29T07:51:16;19.60;1.00
7894;DHT22;51343;51.396;6.656;2023-07-29T07:53:43;19.70;1.00
7894;DHT22;51343;51.396;6.656;2023-07-29T07:56:10;19.70;99.90
7894;DHT22;51343;51.396;6.656;2023-07-29T07:58:38;19.60;1.00
7894;DHT22;51343;51.396;6.656;2023-07-29T08:01:05;19.70;1.00
7894;DHT22;51343;51.396;6.656;2023-07-29T08:03:33;19.70;99.90
7894;DHT22;51343;51.396;6.656;2023-07-29T08:05:59;19.80;99.90
7894;DHT22;51343;51.396;6.656;2023-07-29T08:08:26;19.90;99.90
7894;DHT22;51343;51.396;6.656;2023-07-29T08:10:53;19.90;99.90
7894;DHT22;51343;51.396;6.656;2023-07-29T08:13:21;19.90;41.70
7894;DHT22;51343;51.396;6.656;2023-07-29T08:15:51;19.90;99.90
7894;DHT22;51343;51.396;6.656;2023-07-29T08:18:18;20.00;1.00
7894;DHT22;51343;51.396;6.656;2023-07-29T08:20:52;20.00;1.00
7894;DHT22;51343;51.396;6.656;2023-07-29T08:23:19;20.10;1.00
7894;DHT22;51343;51.396;6.656;2023-07-29T08:25:50;20.20;1.00
7894;DHT22;51343;51.396;6.656;2023-07-29T08:28:17;20.30;1.00
7894;DHT22;51343;51.396;6.656;2023-07-29T08:30:43;20.30;1.00
7894;DHT22;51343;51.396;6.656;2023-07-29T08:33:12;20.40;1.00
7894;DHT22;51343;51.396;6.656;2023-07-29T08:35:38;20.50;1.00
7894;DHT22;51343;51.396;6.656;2023-07-29T08:38:05;20.60;1.00
7894;DHT22;51343;51.396;6.656;2023-07-29T08:40:32;20.70;1.00
7894;DHT22;51343;51.396;6.656;2023-07-29T08:43:01;20.80;99.90
7894;DHT22;51343;51.396;6.656;2023-07-29T08:45:30;20.90;99.90
7894;DHT22;51343;51.396;6.656;2023-07-29T08:47:57;21.10;99.90
7894;DHT22;51343;51.396;6.656;2023-07-29T08:50:26;21.10;99.90
7894;DHT22;51343;51.396;6.656;2023-07-29T08:52:53;21.20;1.00
7894;DHT22;51343;51.396;6.656;2023-07-29T08:55:20;21.10;99.90
7894;DHT22;51343;51.396;6.656;2023-07-29T08:57:47;21.00;99.90
7894;DHT22;51343;51.396;6.656;2023-07-29T09:00:14;21.00;99.90
7894;DHT22;51343;51.396;6.656;2023-07-29T09:02:41;20.90;99.90
7894;DHT22;51343;51.396;6.656;2023-07-29T09:05:08;20.70;99.90
7894;DHT22;51343;51.396;6.656;2023-07-29T09:07:36;20.70;99.90
7894;DHT22;51343;51.396;6.656;2023-07-29T09:10:03;20.70;1.00
7894;DHT22;51343;51.396;6.656;2023-07-29T09:12:30;20.70;1.00
7894;DHT22;51343;51.396;6.656;2023-07-29T09:14:57;20.80;1.00
7894;DHT22;51343;51.396;6.656;2023-07-29T09:17:24;20.80;1.00
7894;DHT22;51343;51.396;6.656;2023-07-29T09:19:50;20.80;1.00
7894;DHT22;51343;51.396;6.656;2023-07-29T09:22:17;20.80;1.00
7894;DHT22;51343;51.396;6.656;2023-07-29T09:24:45;20.80;1.00
7894;DHT22;51343;51.396;6.656;2023-07-29T09:27:22;20.80;1.00
7894;DHT22;51343;51.396;6.656;2023-07-29T09:29:49;20.80;1.00
7894;DHT22;51343;51.396;6.656;2023-07-29T09:32:19;20.70;1.00
7894;DHT22;51343;51.396;6.656;2023-07-29T09:34:46;20.70;1.00
7894;DHT22;51343;51.396;6.656;2023-07-29T09:37:16;20.70;1.00
7894;DHT22;51343;51.396;6.656;2023-07-29T09:39:45;20.80;1.00
7894;DHT22;51343;51.396;6.656;2023-07-29T09:42:16;21.10;1.00
7894;DHT22;51343;51.396;6.656;2023-07-29T09:44:43;21.30;99.90
7894;DHT22;51343;51.396;6.656;2023-07-29T09:47:14;21.60;99.90
7894;DHT22;51343;51.396;6.656;2023-07-29T09:49:45;21.80;99.90
7894;DHT22;51343;51.396;6.656;2023-07-29T09:52:15;21.90;99.90
7894;DHT22;51343;51.396;6.656;2023-07-29T09:54:42;21.90;99.90
7894;DHT22;51343;51.396;6.656;2023-07-29T09:57:10;22.00;99.90
7894;DHT22;51343;51.396;6.656;2023-07-29T09:59:37;22.10;99.90
7894;DHT22;51343;51.396;6.656;2023-07-29T10:02:04;22.40;99.90
7894;DHT22;51343;51.396;6.656;2023-07-29T10:04:31;22.40;99.90
7894;DHT22;51343;51.396;6.656;2023-07-29T10:06:58;22.70;99.90
7894;DHT22;51343;51.396;6.656;2023-07-29T10:09:26;22.70;99.90
7894;DHT22;51343;51.396;6.656;2023-07-29T10:11:53;22.70;1.00
7894;DHT22;51343;51.396;6.656;2023-07-29T10:14:21;22.60;1.00
7894;DHT22;51343;51.396;6.656;2023-07-29T10:16:48;22.70;14.10
7894;DHT22;51343;51.396;6.656;2023-07-29T10:19:17;22.70;27.20
7894;DHT22;51343;51.396;6.656;2023-07-29T10:21:44;23.00;6.10
7894;DHT22;51343;51.396;6.656;2023-07-29T10:24:14;23.00;1.00
7894;DHT22;51343;51.396;6.656;2023-07-29T10:26:41;23.00;1.00
7894;DHT22;51343;51.396;6.656;2023-07-29T10:29:11;22.90;41.10
7894;DHT22;51343;51.396;6.656;2023-07-29T10:31:40;23.20;3.40
7894;DHT22;51343;51.396;6.656;2023-07-29T10:34:09;23.40;1.00
7894;DHT22;51343;51.396;6.656;2023-07-29T10:36:36;23.50;1.00
7894;DHT22;51343;51.396;6.656;2023-07-29T10:39:03;23.30;1.00
7894;DHT22;51343;51.396;6.656;2023-07-29T10:46:54;24.30;1.00
7894;DHT22;51343;51.396;6.656;2023-07-29T10:49:22;24.30;1.00
7894;DHT22;51343;51.396;6.656;2023-07-29T10:51:49;24.20;1.00
7894;DHT22;51343;51.396;6.656;2023-07-29T10:54:16;24.40;1.00
7894;DHT22;51343;51.396;6.656;2023-07-29T10:56:43;24.70;1.00
7894;DHT22;51343;51.396;6.656;2023-07-29T10:59:22;24.60;1.00
7894;DHT22;51343;51.396;6.656;2023-07-29T11:01:58;24.30;1.00
7894;DHT22;51343;51.396;6.656;2023-07-29T11:04:25;24.00;1.00
7894;DHT22;51343;51.396;6.656;2023-07-29T11:07:02;23.70;1.00
7894;DHT22;51343;51.396;6.656;2023-07-29T11:09:51;23.40;1.00
7894;DHT22;51343;51.396;6.656;2023-07-29T11:12:38;23.10;1.00
7894;DHT22;51343;51.396;6.656;2023-07-29T11:15:11;22.90;1.00
7894;DHT22;51343;51.396;6.656;2023-07-29T11:17:40;22.70;1.00
7894;DHT22;51343;51.396;6.656;2023-07-29T11:20:07;22.50;1.00
7894;DHT22;51343;51.396;6.656;2023-07-29T11:22:34;22.40;1.00
7894;DHT22;51343;51.396;6.656;2023-07-29T11:25:01;22.40;1.00
7894;DHT22;51343;51.396;6.656;2023-07-29T11:27:28;22.50;1.00
7894;DHT22;51343;51.396;6.656;2023-07-29T11:29:56;22.70;1.00
7894;DHT22;51343;51.396;6.656;2023-07-29T11:32:23;22.90;1.00
7894;DHT22;51343;51.396;6.656;2023-07-29T11:34:52;23.00;1.00
7894;DHT22;51343;51.396;6.656;2023-07-29T11:37:18;23.60;1.00
7894;DHT22;51343;51.396;6.656;2023-07-29T11:39:46;24.10;1.00
7894;DHT22;51343;51.396;6.656;2023-07-29T11:42:13;24.20;1.00
7894;DHT22;51343;51.396;6.656;2023-07-29T11:44:40;24.40;1.00
7894;DHT22;51343;51.396;6.656;2023-07-29T11:47:07;24.50;1.00
7894;DHT22;51343;51.396;6.656;2023-07-29T11:49:33;24.70;1.00
7894;DHT22;51343;51.396;6.656;2023-07-29T11:52:01;24.90;1.00
7894;DHT22;51343;51.396;6.656;2023-07-29T11:54:28;24.50;1.00
7894;DHT22;51343;51.396;6.656;2023-07-29T11:56:55;24.20;1.00
7894;DHT22;51343;51.396;6.656;2023-07-29T11:59:22;24.40;1.00
7894;DHT22;51343;51.396;6.656;2023-07-29T12:01:49;24.30;1.00
7894;DHT22;51343;51.396;6.656;2023-07-29T12:04:16;23.90;1.00
7894;DHT22;51343;51.396;6.656;2023-07-29T12:06:42;23.70;1.00
7894;DHT22;51343;51.396;6.656;2023-07-29T12:09:10;23.50;1.00
7894;DHT22;51343;51.396;6.656;2023-07-29T12:11:38;23.50;1.00
7894;DHT22;51343;51.396;6.656;2023-07-29T12:14:06;23.50;1.00
7894;DHT22;51343;51.396;6.656;2023-07-29T12:16:39;23.40;1.00
7894;DHT22;51343;51.396;6.656;2023-07-29T12:19:06;23.60;1.00
7894;DHT22;51343;51.396;6.656;2023-07-29T12:21:33;24.00;1.00
7894;DHT22;51343;51.396;6.656;2023-07-29T12:23:59;24.20;1.00
7894;DHT22;51343;51.396;6.656;2023-07-29T12:26:28;24.50;1.00
7894;DHT22;51343;51.396;6.656;2023-07-29T12:28:55;24.90;1.00
7894;DHT22;51343;51.396;6.656;2023-07-29T12:31:28;24.70;1.00
7894;DHT22;51343;51.396;6.656;2023-07-29T12:33:57;25.20;1.00
7894;DHT22;51343;51.396;6.656;2023-07-29T12:36:27;25.10;1.00
7894;DHT22;51343;51.396;6.656;2023-07-29T12:38:53;24.90;1.00
7894;DHT22;51343;51.396;6.656;2023-07-29T12:41:25;24.70;1.00
7894;DHT22;51343;51.396;6.656;2023-07-29T12:43:53;24.30;1.00
7894;DHT22;51343;51.396;6.656;2023-07-29T12:46:19;24.50;1.00
7894;DHT22;51343;51.396;6.656;2023-07-29T12:48:46;24.30;1.00
7894;DHT22;51343;51.396;6.656;2023-07-29T12:51:12;24.10;1.00
7894;DHT22;51343;51.396;6.656;2023-07-29T12:53:39;24.20;1.00
7894;DHT22;51343;51.396;6.656;2023-07-29T12:56:06;24.50;1.00
7894;DHT22;51343;51.396;6.656;2023-07-29T12:58:32;25.20;1.00
7894;DHT22;51343;51.396;6.656;2023-07-29T13:01:00;25.40;1.00
7894;DHT22;51343;51.396;6.656;2023-07-29T13:03:27;25.30;1.00
7894;DHT22;51343;51.396;6.656;2023-07-29T13:05:54;25.10;1.00
7894;DHT22;51343;51.396;6.656;2023-07-29T13:08:20;24.70;1.00
7894;DHT22;51343;51.396;6.656;2023-07-29T13:10:48;24.30;1.00
7894;DHT22;51343;51.396;6.656;2023-07-29T13:13:15;24.00;1.00
7894;DHT22;51343;51.396;6.656;2023-07-29T13:15:41;23.70;1.00
7894;DHT22;51343;51.396;6.656;2023-07-29T13:18:09;23.50;1.00
7894;DHT22;51343;51.396;6.656;2023-07-29T13:20:36;23.30;1.00
7894;DHT22;51343;51.396;6.656;2023-07-29T13:23:02;23.10;1.00
7894;DHT22;51343;51.396;6.656;2023-07-29T13:25:29;23.00;1.00
7894;DHT22;51343;51.396;6.656;2023-07-29T13:27:56;22.90;1.00
7894;DHT22;51343;51.396;6.656;2023-07-29T13:30:22;22.70;1.00
7894;DHT22;51343;51.396;6.656;2023-07-29T13:32:49;22.50;1.00
7894;DHT22;51343;51.396;6.656;2023-07-29T13:35:17;22.30;1.00
7894;DHT22;51343;51.396;6.656;2023-07-29T13:37:44;21.90;99.90
7894;DHT22;51343;51.396;6.656;2023-07-29T13:40:10;21.50;1.00
7894;DHT22;51343;51.396;6.656;2023-07-29T13:42:37;21.10;1.00
7894;DHT22;51343;51.396;6.656;2023-07-29T13:45:04;20.90;99.90
7894;DHT22;51343;51.396;6.656;2023-07-29T13:47:31;20.60;1.00
7894;DHT22;51343;51.396;6.656;2023-07-29T13:49:57;20.40;1.00
7894;DHT22;51343;51.396;6.656;2023-07-29T13:52:25;20.20;99.90
7894;DHT22;51343;51.396;6.656;2023-07-29T13:54:52;20.00;99.90
7894;DHT22;51343;51.396;6.656;2023-07-29T13:57:19;19.90;1.00
7894;DHT22;51343;51.396;6.656;2023-07-29T13:59:45;19.80;1.00
7894;DHT22;51343;51.396;6.656;2023-07-29T14:02:12;19.80;99.90
7894;DHT22;51343;51.396;6.656;2023-07-29T14:04:39;19.70;1.00
7894;DHT22;51343;51.396;6.656;2023-07-29T14:07:05;19.80;1.00
7894;DHT22;51343;51.396;6.656;2023-07-29T14:09:33;20.00;99.90
7894;DHT22;51343;51.396;6.656;2023-07-29T14:12:00;20.20;1.00
7894;DHT22;51343;51.396;6.656;2023-07-29T14:14:27;20.50;99.90
7894;DHT22;51343;51.396;6.656;2023-07-29T14:16:56;20.80;99.90
7894;DHT22;51343;51.396;6.656;2023-07-29T14:19:23;21.40;99.90
7894;DHT22;51343;51.396;6.656;2023-07-29T14:21:49;22.10;1.00
7894;DHT22;51343;51.396;6.656;2023-07-29T14:24:16;22.80;1.00
7894;DHT22;51343;51.396;6.656;2023-07-29T14:26:44;23.20;1.00
7894;DHT22;51343;51.396;6.656;2023-07-29T14:29:10;23.40;99.90
7894;DHT22;51343;51.396;6.656;2023-07-29T14:31:37;23.30;1.00
7894;DHT22;51343;51.396;6.656;2023-07-29T14:34:04;22.80;23.90
7894;DHT22;51343;51.396;6.656;2023-07-29T14:36:30;22.40;1.00
7894;DHT22;51343;51.396;6.656;2023-07-29T14:38:57;22.10;1.00
7894;DHT22;51343;51.396;6.656;2023-07-29T14:41:24;21.70;99.90
7894;DHT22;51343;51.396;6.656;2023-07-29T14:43:52;21.50;99.90
7894;DHT22;51343;51.396;6.656;2023-07-29T14:46:18;21.40;1.00
7894;DHT22;51343;51.396;6.656;2023-07-29T14:48:45;21.30;99.90
7894;DHT22;51343;51.396;6.656;2023-07-29T14:51:13;21.20;99.90
7894;DHT22;51343;51.396;6.656;2023-07-29T14:53:39;21.10;1.00
7894;DHT22;51343;51.396;6.656;2023-07-29T14:56:06;21.10;1.00
7894;DHT22;51343;51.396;6.656;2023-07-29T14:58:33;21.10;1.00
7894;DHT22;51343;51.396;6.656;2023-07-29T15:01:00;21.00;99.90
7894;DHT22;51343;51.396;6.656;2023-07-29T15:03:27;20.80;1.00
7894;DHT22;51343;51.396;6.656;2023-07-29T15:05:54;20.80;1.00
7894;DHT22;51343;51.396;6.656;2023-07-29T15:08:20;20.80;99.90
7894;DHT22;51343;51.396;6.656;2023-07-29T15:10:47;20.80;1.00
7894;DHT22;51343;51.396;6.656;2023-07-29T15:13:14;20.70;1.00
7894;DHT22;51343;51.396;6.656;2023-07-29T15:15:41;20.60;99.90
7894;DHT22;51343;51.396;6.656;2023-07-29T15:18:10;20.60;1.00
7894;DHT22;51343;51.396;6.656;2023-07-29T15:20:36;20.90;1.00
7894;DHT22;51343;51.396;6.656;2023-07-29T15:23:03;21.20;1.00
7894;DHT22;51343;51.396;6.656;2023-07-29T15:25:30;21.60;99.90
7894;DHT22;51343;51.396;6.656;2023-07-29T15:27:56;22.20;1.00
7894;DHT22;51343;51.396;6.656;2023-07-29T15:30:23;22.60;99.90
7894;DHT22;51343;51.396;6.656;2023-07-29T15:32:50;23.10;99.90
7894;DHT22;51343;51.396;6.656;2023-07-29T15:35:18;23.40;99.90
7894;DHT22;51343;51.396;6.656;2023-07-29T15:37:44;23.70;99.90
7894;DHT22;51343;51.396;6.656;2023-07-29T15:40:13;23.90;99.90
7894;DHT22;51343;51.396;6.656;2023-07-29T15:42:39;24.00;99.90
7894;DHT22;51343;51.396;6.656;2023-07-29T15:45:06;23.80;47.20
7894;DHT22;51343;51.396;6.656;2023-07-29T15:47:33;23.60;99.90
7894;DHT22;51343;51.396;6.656;2023-07-29T15:50:00;23.60;99.90
7894;DHT22;51343;51.396;6.656;2023-07-29T15:52:28;23.70;99.90
7894;DHT22;51343;51.396;6.656;2023-07-29T15:54:55;23.60;99.90
7894;DHT22;51343;51.396;6.656;2023-07-29T15:57:22;23.60;99.90